createdAt,value
2023-07-04T00:00:35.045Z,15.18
2023-07-04T00:03:02.838Z,15.17
2023-07-04T00:05:30.633Z,15.04
2023-07-04T00:07:58.673Z,15.30
2023-07-04T00:10:26.886Z,15.11
2023-07-04T00:12:54.684Z,15.25
2023-07-04T00:15:22.375Z,15.17
2023-07-04T00:17:51.470Z,14.89
2023-07-04T00:20:20.106Z,15.31
2023-07-04T00:22:48.339Z,15.13
2023-07-04T00:25:16.216Z,15.07
2023-07-04T00:27:43.935Z,15.12
2023-07-04T00:30:13.743Z,15.07
2023-07-04T00:32:41.492Z,14.98
2023-07-04T00:35:10.835Z,14.99
2023-07-04T00:37:38.565Z,15.04
2023-07-04T00:40:10.938Z,14.98
2023-07-04T00:42:38.662Z,15.04
2023-07-04T00:45:10.969Z,15.08
2023-07-04T00:47:47.733Z,14.97
2023-07-04T00:50:20.256Z,14.98
2023-07-04T00:52:48.068Z,14.88
2023-07-04T00:55:15.948Z,15.00
2023-07-04T00:57:46.404Z,14.99
2023-07-04T01:00:20.468Z,15.01
2023-07-04T01:02:49.917Z,15.18
2023-07-04T01:05:21.756Z,15.02
2023-07-04T01:07:52.628Z,15.00
2023-07-04T01:10:25.040Z,14.79
2023-07-04T01:12:53.326Z,14.75
2023-07-04T01:15:24.556Z,14.86
2023-07-04T01:17:52.431Z,14.86
2023-07-04T01:20:21.943Z,14.78
2023-07-04T01:22:58.932Z,14.81
2023-07-04T01:25:32.951Z,14.87
2023-07-04T01:28:03.964Z,14.65
2023-07-04T01:30:34.897Z,14.70
2023-07-04T01:33:02.818Z,14.63
2023-07-04T01:35:30.778Z,14.60
2023-07-04T01:38:00.384Z,14.51
2023-07-04T01:40:28.195Z,14.43
2023-07-04T01:42:55.899Z,14.54
2023-07-04T01:45:25.045Z,14.40
2023-07-04T01:47:54.134Z,14.40
2023-07-04T01:50:22.253Z,14.49
2023-07-04T01:52:49.980Z,14.65
2023-07-04T01:55:17.842Z,14.66
2023-07-04T01:57:45.557Z,14.66
2023-07-04T02:00:14.609Z,14.62
2023-07-04T02:02:44.575Z,14.69
2023-07-04T02:05:12.579Z,14.73
2023-07-04T02:07:40.354Z,14.51
2023-07-04T02:10:09.389Z,14.72
2023-07-04T02:12:37.134Z,14.75
2023-07-04T02:15:05.678Z,14.80
2023-07-04T02:17:33.453Z,14.62
2023-07-04T02:20:02.548Z,14.73
2023-07-04T02:22:30.306Z,14.76
2023-07-04T02:24:58.059Z,14.67
2023-07-04T02:27:25.812Z,14.81
2023-07-04T02:29:53.524Z,14.86
2023-07-04T02:32:21.352Z,14.88
2023-07-04T02:34:49.122Z,14.83
2023-07-04T02:37:18.352Z,14.63
2023-07-04T02:39:46.279Z,14.63
2023-07-04T02:42:14.245Z,14.76
2023-07-04T02:44:42.030Z,14.93
2023-07-04T02:47:10.066Z,14.91
2023-07-04T02:49:39.292Z,14.97
2023-07-04T02:52:07.665Z,14.83
2023-07-04T02:54:36.835Z,14.84
2023-07-04T02:57:05.096Z,14.70
2023-07-04T02:59:32.801Z,14.91
2023-07-04T03:02:00.517Z,14.94
2023-07-04T03:04:28.411Z,14.81
2023-07-04T03:06:56.152Z,14.92
2023-07-04T03:09:25.625Z,14.98
2023-07-04T03:11:55.918Z,15.06
2023-07-04T03:14:23.886Z,15.06
2023-07-04T03:16:51.632Z,15.06
2023-07-04T03:19:20.921Z,15.07
2023-07-04T03:21:48.634Z,15.01
2023-07-04T03:24:16.415Z,15.08
2023-07-04T03:26:46.312Z,15.06
2023-07-04T03:29:15.426Z,15.06
2023-07-04T03:31:43.506Z,15.06
2023-07-04T03:34:11.299Z,14.93
2023-07-04T03:36:39.060Z,14.95
2023-07-04T03:39:07.049Z,14.80
2023-07-04T03:41:34.917Z,14.82
2023-07-04T03:44:02.604Z,14.71
2023-07-04T03:46:31.683Z,14.73
2023-07-04T03:48:59.442Z,14.76
2023-07-04T03:51:27.166Z,14.78
2023-07-04T03:53:54.917Z,14.75
2023-07-04T03:56:22.645Z,14.68
2023-07-04T03:58:50.328Z,14.80
2023-07-04T04:01:18.074Z,14.73
2023-07-04T04:03:47.408Z,15.12
2023-07-04T04:06:15.410Z,15.43
2023-07-04T04:08:43.162Z,15.54
2023-07-04T04:11:10.898Z,15.61
2023-07-04T04:13:38.656Z,15.43
2023-07-04T04:16:06.809Z,15.32
2023-07-04T04:18:34.516Z,15.28
2023-07-04T04:21:03.616Z,15.26
2023-07-04T04:23:31.347Z,15.30
2023-07-04T04:25:59.087Z,15.55
2023-07-04T04:28:27.746Z,15.68
2023-07-04T04:30:55.991Z,15.71
2023-07-04T04:33:24.890Z,15.67
2023-07-04T04:35:52.665Z,15.70
2023-07-04T04:38:21.797Z,15.91
2023-07-04T04:40:49.670Z,16.08
2023-07-04T04:43:17.418Z,16.06
2023-07-04T04:45:46.128Z,16.38
2023-07-04T04:48:30.178Z,16.65
2023-07-04T04:50:58.864Z,16.70
2023-07-04T04:53:28.124Z,17.09
2023-07-04T04:55:55.839Z,16.74
2023-07-04T04:58:23.587Z,16.85
2023-07-04T05:00:51.418Z,16.61
2023-07-04T05:03:19.371Z,16.37
2023-07-04T05:05:47.152Z,16.52
2023-07-04T05:08:15.135Z,16.46
2023-07-04T05:10:44.207Z,16.56
2023-07-04T05:13:11.958Z,16.51
2023-07-04T05:15:39.700Z,16.55
2023-07-04T05:18:07.504Z,16.80
2023-07-04T05:20:36.089Z,17.00
2023-07-04T05:23:03.856Z,16.93
2023-07-04T05:25:31.587Z,16.75
2023-07-04T05:28:00.686Z,16.91
2023-07-04T05:30:28.416Z,16.91
2023-07-04T05:32:56.171Z,16.75
2023-07-04T05:35:23.928Z,16.52
2023-07-04T05:37:51.622Z,16.35
2023-07-04T05:40:19.329Z,16.51
2023-07-04T05:42:47.103Z,16.62
2023-07-04T05:45:16.403Z,16.62
2023-07-04T05:47:44.214Z,16.82
2023-07-04T05:50:12.130Z,17.31
2023-07-04T05:52:39.880Z,17.29
2023-07-04T05:55:08.803Z,17.29
2023-07-04T05:57:36.544Z,17.63
2023-07-04T06:00:06.181Z,18.03
2023-07-04T06:02:35.312Z,17.67
2023-07-04T06:05:03.263Z,17.60
2023-07-04T06:07:31.690Z,17.63
2023-07-04T06:10:00.680Z,17.96
2023-07-04T06:12:30.459Z,18.40
2023-07-04T06:14:58.198Z,18.50
2023-07-04T06:17:25.960Z,18.22
2023-07-04T06:19:55.152Z,18.46
2023-07-04T06:22:22.869Z,18.51
2023-07-04T06:24:52.763Z,18.45
2023-07-04T06:27:20.484Z,18.85
2023-07-04T06:29:48.626Z,19.48
2023-07-04T06:32:16.370Z,19.82
2023-07-04T06:34:44.275Z,19.88
2023-07-04T06:37:13.375Z,20.08
2023-07-04T06:39:41.067Z,19.81
2023-07-04T06:42:08.862Z,19.69
2023-07-04T06:44:36.569Z,19.14
2023-07-04T06:47:04.475Z,19.04
2023-07-04T06:49:32.242Z,19.23
2023-07-04T06:51:59.982Z,19.35
2023-07-04T06:54:29.049Z,19.16
2023-07-04T06:56:56.840Z,19.11
2023-07-04T06:59:25.382Z,19.24
2023-07-04T07:01:53.152Z,19.66
2023-07-04T07:04:20.852Z,20.14
2023-07-04T07:06:49.378Z,20.97
2023-07-04T07:09:17.035Z,21.34
2023-07-04T07:11:46.144Z,21.15
2023-07-04T07:14:13.958Z,21.00
2023-07-04T07:16:41.756Z,21.31
2023-07-04T07:19:09.570Z,21.12
2023-07-04T07:21:38.047Z,20.59
2023-07-04T07:24:06.242Z,20.13
2023-07-04T07:26:34.565Z,19.74
2023-07-04T07:29:03.631Z,20.30
2023-07-04T07:31:34.541Z,20.38
2023-07-04T07:34:03.325Z,19.93
2023-07-04T07:36:32.943Z,20.02
2023-07-04T07:39:03.722Z,19.59
2023-07-04T07:41:33.716Z,19.26
2023-07-04T07:44:02.801Z,19.54
2023-07-04T07:46:30.567Z,19.22
2023-07-04T07:48:58.576Z,19.12
2023-07-04T07:51:26.798Z,19.69
2023-07-04T07:53:56.348Z,19.94
2023-07-04T07:56:25.802Z,20.12
2023-07-04T07:58:53.923Z,19.37
2023-07-04T08:01:24.524Z,19.37
2023-07-04T08:03:52.525Z,19.94
2023-07-04T08:06:25.288Z,20.23
2023-07-04T08:08:53.092Z,20.23
2023-07-04T08:11:21.337Z,20.22
2023-07-04T08:13:49.673Z,20.96
2023-07-04T08:16:20.061Z,21.09
2023-07-04T08:18:49.414Z,20.46
2023-07-04T08:21:17.798Z,20.66
2023-07-04T08:23:46.221Z,20.35
2023-07-04T08:26:17.621Z,21.11
2023-07-04T08:28:46.714Z,21.10
2023-07-04T08:31:15.117Z,21.41
2023-07-04T08:33:42.866Z,20.62
2023-07-04T08:36:12.412Z,20.81
2023-07-04T08:38:40.323Z,21.02
2023-07-04T08:41:18.741Z,21.42
2023-07-04T08:43:48.072Z,21.23
2023-07-04T08:46:16.623Z,21.20
2023-07-04T08:48:44.901Z,21.13
2023-07-04T08:51:20.338Z,21.19
2023-07-04T08:53:51.594Z,21.20
2023-07-04T08:56:26.958Z,21.81
2023-07-04T08:59:01.180Z,21.49
2023-07-04T09:01:36.261Z,20.70
2023-07-04T09:04:06.764Z,20.95
2023-07-04T09:06:41.525Z,20.21
2023-07-04T09:09:14.734Z,20.17
2023-07-04T09:11:43.436Z,20.26
2023-07-04T09:14:17.869Z,20.24
2023-07-04T09:16:49.965Z,20.27
2023-07-04T09:19:20.189Z,20.24
2023-07-04T09:21:49.597Z,20.13
2023-07-04T09:24:17.419Z,19.68
2023-07-04T09:26:47.393Z,19.16
2023-07-04T09:29:16.430Z,18.40
2023-07-04T09:31:46.349Z,17.73
2023-07-04T09:34:17.630Z,16.75
2023-07-04T09:36:45.667Z,14.26
2023-07-04T09:39:14.920Z,14.02
2023-07-04T09:41:55.401Z,14.18
2023-07-04T09:44:29.258Z,14.08
2023-07-04T09:46:59.078Z,14.35
2023-07-04T09:49:29.083Z,14.69
2023-07-04T09:52:00.531Z,15.29
2023-07-04T09:54:30.291Z,15.47
2023-07-04T09:56:58.162Z,15.71
2023-07-04T09:59:28.008Z,15.80
2023-07-04T10:02:01.187Z,15.84
2023-07-04T10:04:34.922Z,16.11
2023-07-04T10:07:04.398Z,16.56
2023-07-04T10:09:34.951Z,17.05
2023-07-04T10:12:11.216Z,17.44
2023-07-04T10:14:47.015Z,17.50
2023-07-04T10:17:17.881Z,17.83
2023-07-04T10:19:47.708Z,18.54
2023-07-04T10:22:24.959Z,19.21
2023-07-04T10:24:54.054Z,19.52
2023-07-04T10:27:22.386Z,19.25
2023-07-04T10:29:55.336Z,19.33
2023-07-04T10:32:24.109Z,18.94
2023-07-04T10:34:51.994Z,18.66
2023-07-04T10:37:23.605Z,18.30
2023-07-04T10:39:56.513Z,17.73
2023-07-04T10:42:28.504Z,17.65
2023-07-04T10:44:57.948Z,17.47
2023-07-04T10:47:28.892Z,17.26
2023-07-04T10:50:00.457Z,16.93
2023-07-04T10:52:32.684Z,16.54
2023-07-04T10:55:02.659Z,16.35
2023-07-04T10:57:36.100Z,16.29
2023-07-04T11:00:08.212Z,16.56
2023-07-04T11:02:40.439Z,16.30
2023-07-04T11:05:12.596Z,16.63
2023-07-04T11:07:41.671Z,17.11
2023-07-04T11:10:13.341Z,17.43
2023-07-04T11:12:42.487Z,17.36
2023-07-04T11:15:21.576Z,17.78
2023-07-04T11:17:50.135Z,18.49
2023-07-04T11:20:20.297Z,19.00
2023-07-04T11:23:04.696Z,19.03
2023-07-04T11:25:38.073Z,18.86
2023-07-04T11:28:17.532Z,18.79
2023-07-04T11:30:48.920Z,18.86
2023-07-04T11:33:42.594Z,19.53
2023-07-04T11:36:18.562Z,19.79
2023-07-04T11:38:52.281Z,20.02
2023-07-04T11:41:28.007Z,20.59
2023-07-04T11:43:56.308Z,20.58
2023-07-04T11:46:26.200Z,20.17
2023-07-04T11:48:55.390Z,20.30
2023-07-04T11:51:25.465Z,20.33
2023-07-04T11:53:57.135Z,20.84
2023-07-04T11:56:42.309Z,20.76
2023-07-04T11:59:39.806Z,20.33
2023-07-04T12:02:15.557Z,20.74
2023-07-04T12:04:48.373Z,20.37
2023-07-04T12:07:21.067Z,20.52
2023-07-04T12:09:51.597Z,20.69
2023-07-04T12:12:23.480Z,21.06
2023-07-04T12:15:00.054Z,20.75
2023-07-04T12:17:27.872Z,20.83
2023-07-04T12:19:57.230Z,21.05
2023-07-04T12:22:25.982Z,21.27
2023-07-04T12:24:53.984Z,21.98
2023-07-04T12:27:28.885Z,21.72
2023-07-04T12:32:27.602Z,20.99
2023-07-04T12:37:28.727Z,20.88
2023-07-04T12:39:56.679Z,20.65
2023-07-04T12:42:30.603Z,20.46
2023-07-04T12:44:58.419Z,20.78
2023-07-04T12:47:28.518Z,21.22
2023-07-04T12:49:59.493Z,22.00
2023-07-04T12:52:31.324Z,22.11
2023-07-04T12:54:59.647Z,21.38
2023-07-04T12:57:29.633Z,21.65
2023-07-04T13:00:10.540Z,21.81
2023-07-04T13:02:38.728Z,22.50
2023-07-04T13:05:07.832Z,22.50
2023-07-04T13:07:35.828Z,22.53
2023-07-04T13:10:04.227Z,22.22
2023-07-04T13:12:36.603Z,22.51
2023-07-04T13:15:13.298Z,22.37
2023-07-04T13:17:53.842Z,22.57
2023-07-04T13:20:22.719Z,22.55
2023-07-04T13:25:41.097Z,23.12
2023-07-04T13:32:58.860Z,23.09
2023-07-04T13:33:34.901Z,22.72
2023-07-04T13:36:12.127Z,22.31
2023-07-04T13:41:12.039Z,21.98
2023-07-04T13:46:13.189Z,22.38
2023-07-04T13:48:40.909Z,23.18
2023-07-04T13:51:09.294Z,23.35
2023-07-04T13:53:37.005Z,23.11
2023-07-04T13:56:05.330Z,23.07
2023-07-04T13:58:32.995Z,22.82
2023-07-04T14:06:07.070Z,22.41
2023-07-04T14:08:37.099Z,22.36
2023-07-04T14:11:06.533Z,22.66
2023-07-04T14:13:34.652Z,22.18
2023-07-04T14:21:08.375Z,22.49
2023-07-04T14:23:36.424Z,22.82
2023-07-04T14:26:04.297Z,22.75
2023-07-04T14:28:32.014Z,23.04
2023-07-04T14:30:59.922Z,22.55
2023-07-04T14:33:29.164Z,22.48
2023-07-04T14:35:56.958Z,22.81
2023-07-04T14:38:24.903Z,22.93
2023-07-04T14:43:23.255Z,22.92
2023-07-04T14:45:58.084Z,22.71
2023-07-04T14:48:25.850Z,22.65
2023-07-04T14:51:03.124Z,22.10
2023-07-04T14:53:30.898Z,22.10
2023-07-04T14:56:00.074Z,22.39
2023-07-04T14:58:28.089Z,22.72
2023-07-04T15:00:55.898Z,23.06
2023-07-04T15:03:23.899Z,22.91
2023-07-04T15:05:51.920Z,23.13
2023-07-04T15:08:21.307Z,23.25
2023-07-04T15:10:49.062Z,23.29
2023-07-04T15:13:16.755Z,22.98
2023-07-04T15:15:44.497Z,22.94
2023-07-04T15:18:12.199Z,22.88
2023-07-04T15:20:39.948Z,22.49
2023-07-04T15:23:07.733Z,22.90
2023-07-04T15:25:36.898Z,23.12
2023-07-04T15:28:05.411Z,23.46
2023-07-04T15:30:33.172Z,23.01
2023-07-04T15:33:01.001Z,22.95
2023-07-04T15:35:28.762Z,23.04
2023-07-04T15:37:56.514Z,23.12
2023-07-04T15:40:24.252Z,23.02
2023-07-04T15:42:53.912Z,23.58
2023-07-04T15:45:22.269Z,23.95
2023-07-04T15:47:50.710Z,23.73
2023-07-04T15:50:18.538Z,23.91
2023-07-04T15:52:46.300Z,23.87
2023-07-04T15:55:14.143Z,23.22
2023-07-04T15:57:42.153Z,23.28
2023-07-04T16:00:12.579Z,23.01
2023-07-04T16:02:41.510Z,22.83
2023-07-04T16:05:10.298Z,22.64
2023-07-04T16:07:38.048Z,23.24
2023-07-04T16:10:06.142Z,23.35
2023-07-04T16:12:33.924Z,23.01
2023-07-04T16:15:01.688Z,23.41
2023-07-04T16:17:31.044Z,23.25
2023-07-04T16:19:58.956Z,23.13
2023-07-04T16:22:26.686Z,23.47
2023-07-04T16:24:54.396Z,23.49
2023-07-04T16:27:22.113Z,23.28
2023-07-04T16:29:49.863Z,23.12
2023-07-04T16:32:17.624Z,22.87
2023-07-04T16:34:46.962Z,22.74
2023-07-04T16:37:14.673Z,22.99
2023-07-04T16:39:42.843Z,23.28
2023-07-04T16:42:10.657Z,23.49
2023-07-04T16:44:38.402Z,23.38
2023-07-04T16:47:06.548Z,23.58
2023-07-04T16:49:34.636Z,24.08
2023-07-04T16:52:04.406Z,24.23
2023-07-04T16:54:32.154Z,24.60
2023-07-04T16:57:02.336Z,23.79
2023-07-04T16:59:30.810Z,24.01
2023-07-04T17:02:00.768Z,23.91
2023-07-04T17:04:28.822Z,23.69
2023-07-04T17:06:56.570Z,23.84
2023-07-04T17:09:25.775Z,23.70
2023-07-04T17:11:53.522Z,23.70
2023-07-04T17:14:21.242Z,23.29
2023-07-04T17:16:48.964Z,22.84
2023-07-04T17:19:16.696Z,22.93
2023-07-04T17:21:44.489Z,23.12
2023-07-04T17:24:12.205Z,22.76
2023-07-04T17:26:41.300Z,22.68
2023-07-04T17:29:09.355Z,22.65
2023-07-04T17:31:37.154Z,22.76
2023-07-04T17:34:05.131Z,22.47
2023-07-04T17:36:33.917Z,22.33
2023-07-04T17:39:02.098Z,22.51
2023-07-04T17:41:30.422Z,22.38
2023-07-04T17:44:00.095Z,22.62
2023-07-04T17:46:28.694Z,22.78
2023-07-04T17:48:56.587Z,22.76
2023-07-04T17:51:26.593Z,22.88
2023-07-04T17:53:54.412Z,23.03
2023-07-04T17:56:25.300Z,23.19
2023-07-04T17:58:53.269Z,22.89
2023-07-04T18:01:25.693Z,22.93
2023-07-04T18:03:55.101Z,23.03
2023-07-04T18:06:23.589Z,23.09
2023-07-04T18:08:51.803Z,22.94
2023-07-04T18:11:22.527Z,22.94
2023-07-04T18:13:51.366Z,22.89
2023-07-04T18:16:19.743Z,22.97
2023-07-04T18:18:49.536Z,23.04
2023-07-04T18:21:19.264Z,22.91
2023-07-04T18:23:48.352Z,22.86
2023-07-04T18:26:16.139Z,22.81
2023-07-04T18:28:46.860Z,22.75
2023-07-04T18:31:17.261Z,22.65
2023-07-04T18:33:45.183Z,22.56
2023-07-04T18:36:16.204Z,22.41
2023-07-04T18:38:44.687Z,22.22
2023-07-04T18:41:12.664Z,22.09
2023-07-04T18:43:40.767Z,22.03
2023-07-04T18:46:09.400Z,21.96
2023-07-04T18:48:37.668Z,21.82
2023-07-04T18:51:10.940Z,21.64
2023-07-04T18:53:40.506Z,21.25
2023-07-04T18:56:08.660Z,21.06
2023-07-04T18:58:36.652Z,20.97
2023-07-04T19:01:11.835Z,20.79
2023-07-04T19:03:39.752Z,20.73
2023-07-04T19:06:07.641Z,20.69
2023-07-04T19:08:35.793Z,20.65
2023-07-04T19:11:05.069Z,20.58
2023-07-04T19:13:33.396Z,20.36
2023-07-04T19:16:02.189Z,20.38
2023-07-04T19:18:31.161Z,20.44
2023-07-04T19:21:00.673Z,20.40
2023-07-04T19:23:29.432Z,20.27
2023-07-04T19:25:57.730Z,20.09
2023-07-04T19:28:27.662Z,19.99
2023-07-04T19:30:59.829Z,19.93
2023-07-04T19:33:30.431Z,19.92
2023-07-04T19:35:58.687Z,19.95
2023-07-04T19:38:26.414Z,19.97
2023-07-04T19:40:57.853Z,20.03
